createdAt,value
2023-03-17T00:02:59.850Z,29.50
2023-03-17T00:08:12.991Z,27.50
2023-03-17T00:13:16.154Z,29.90
2023-03-17T00:18:21.089Z,32.10
2023-03-17T00:23:25.481Z,30.10
2023-03-17T00:28:28.399Z,29.60
2023-03-17T00:33:34.674Z,41.80
2023-03-17T00:38:37.609Z,39.30
2023-03-17T00:43:41.823Z,34.70
2023-03-17T00:48:45.921Z,34.60
2023-03-17T00:53:49.000Z,39.00
2023-03-17T00:58:52.317Z,40.40
2023-03-17T01:03:55.132Z,35.40
2023-03-17T01:08:58.191Z,37.90
2023-03-17T01:14:01.055Z,33.20
2023-03-17T01:19:04.746Z,32.40
2023-03-17T01:24:08.412Z,29.80
2023-03-17T01:29:11.387Z,26.60
2023-03-17T01:34:14.354Z,23.10
2023-03-17T01:39:17.946Z,20.70
2023-03-17T01:44:20.785Z,19.50
2023-03-17T01:49:38.221Z,19.40
2023-03-17T01:55:12.449Z,16.90
2023-03-17T02:00:20.097Z,16.10
2023-03-17T02:05:27.259Z,15.00
2023-03-17T02:10:30.687Z,14.40
2023-03-17T02:15:44.256Z,12.20
2023-03-17T02:20:47.223Z,11.70
2023-03-17T02:25:53.727Z,14.50
2023-03-17T02:30:57.954Z,12.10
2023-03-17T02:36:01.585Z,12.40
2023-03-17T02:41:06.524Z,10.50
2023-03-17T02:46:09.647Z,13.10
2023-03-17T02:51:14.269Z,10.30
2023-03-17T02:56:17.295Z,11.30
2023-03-17T03:01:21.347Z,11.60
2023-03-17T03:06:24.372Z,9.20
2023-03-17T03:11:27.978Z,9.00
2023-03-17T03:16:30.956Z,10.80
2023-03-17T03:21:34.556Z,10.90
2023-03-17T03:26:37.414Z,10.50
2023-03-17T03:31:40.754Z,10.50
2023-03-17T03:36:43.889Z,9.00
2023-03-17T03:41:46.776Z,9.20
2023-03-17T03:46:49.943Z,10.10
2023-03-17T03:51:53.067Z,10.30
2023-03-17T03:56:55.924Z,9.60
2023-03-17T04:01:58.867Z,10.60
2023-03-17T04:07:01.731Z,8.50
2023-03-17T04:12:05.292Z,11.80
2023-03-17T04:17:09.101Z,11.90
2023-03-17T04:22:13.315Z,9.80
2023-03-17T04:27:17.523Z,17.30
2023-03-17T04:32:20.902Z,18.30
2023-03-17T04:37:24.169Z,17.20
2023-03-17T04:42:27.041Z,13.30
2023-03-17T04:47:30.028Z,17.30
2023-03-17T04:52:32.908Z,15.00
2023-03-17T04:57:37.016Z,13.70
2023-03-17T05:02:40.058Z,16.10
2023-03-17T05:07:44.934Z,13.20
2023-03-17T05:12:47.925Z,16.20
2023-03-17T05:17:51.284Z,20.30
2023-03-17T05:22:54.414Z,14.40
2023-03-17T05:27:58.710Z,15.10
2023-03-17T05:33:01.638Z,12.30
2023-03-17T05:38:04.616Z,13.20
2023-03-17T05:43:07.451Z,13.20
2023-03-17T05:48:12.351Z,15.10
2023-03-17T05:53:16.244Z,17.70
2023-03-17T05:58:19.305Z,19.70
2023-03-17T06:03:22.434Z,18.90
2023-03-17T06:08:25.461Z,16.90
2023-03-17T06:13:28.458Z,16.60
2023-03-17T06:18:31.488Z,16.40
2023-03-17T06:23:34.537Z,17.60
2023-03-17T06:28:37.364Z,17.40
2023-03-17T06:33:40.227Z,15.50
2023-03-17T06:38:43.906Z,16.30
2023-03-17T06:43:47.359Z,17.80
2023-03-17T06:48:50.207Z,21.30
2023-03-17T06:53:53.269Z,23.80
2023-03-17T06:58:56.144Z,28.20
2023-03-17T07:03:59.590Z,31.10
2023-03-17T07:09:03.623Z,31.50
2023-03-17T07:14:06.800Z,32.70
2023-03-17T07:19:09.968Z,27.90
2023-03-17T07:24:13.274Z,22.80
2023-03-17T07:29:16.747Z,23.40
2023-03-17T07:34:19.989Z,24.40
2023-03-17T07:39:22.958Z,23.90
2023-03-17T07:44:26.062Z,31.50
2023-03-17T07:49:40.733Z,32.00
2023-03-17T07:54:45.056Z,35.40
2023-03-17T07:59:48.010Z,28.00
2023-03-17T08:04:51.085Z,27.70
2023-03-17T08:09:53.958Z,27.00
2023-03-17T08:14:57.093Z,28.50
2023-03-17T08:19:59.958Z,25.00
2023-03-17T08:25:03.679Z,21.90
2023-03-17T08:30:07.915Z,24.10
2023-03-17T08:35:16.693Z,26.60
2023-03-17T08:40:21.266Z,19.10
2023-03-17T08:45:24.333Z,15.90
2023-03-17T08:50:27.560Z,15.80
2023-03-17T08:55:30.769Z,14.80
2023-03-17T09:00:34.040Z,13.50
2023-03-17T09:05:38.554Z,12.70
2023-03-17T09:10:44.189Z,14.50
2023-03-17T09:15:47.320Z,12.80
2023-03-17T09:20:50.145Z,15.50
2023-03-17T09:25:52.966Z,17.90
2023-03-17T09:31:06.242Z,14.00
2023-03-17T09:36:11.130Z,11.00
2023-03-17T09:41:19.797Z,11.40
2023-03-17T09:46:55.836Z,14.70
2023-03-17T09:51:59.443Z,11.30
2023-03-17T09:57:16.505Z,16.60
2023-03-17T10:02:27.723Z,12.40
2023-03-17T10:07:47.143Z,18.80
2023-03-17T10:13:42.783Z,14.50
2023-03-17T10:19:32.168Z,9.70
2023-03-17T10:24:45.962Z,11.90
2023-03-17T10:29:49.314Z,14.10
2023-03-17T10:34:52.420Z,9.90
2023-03-17T10:39:57.647Z,7.90
2023-03-17T10:45:22.168Z,12.50
2023-03-17T10:50:34.513Z,15.70
2023-03-17T10:55:49.924Z,15.90
2023-03-17T11:01:22.200Z,14.00
2023-03-17T11:06:42.126Z,17.20
2023-03-17T11:12:00.275Z,18.90
2023-03-17T11:17:16.667Z,16.00
2023-03-17T11:22:40.599Z,13.20
2023-03-17T11:27:55.890Z,13.60
2023-03-17T11:33:36.829Z,14.80
2023-03-17T11:39:05.755Z,11.20
2023-03-17T11:44:38.585Z,10.70
2023-03-17T11:49:49.158Z,9.20
2023-03-17T11:55:11.300Z,9.60
2023-03-17T12:00:26.525Z,9.10
2023-03-17T12:05:30.268Z,8.70
2023-03-17T12:10:55.614Z,8.80
2023-03-17T12:17:09.294Z,9.00
2023-03-17T12:22:32.913Z,8.30
2023-03-17T12:28:11.233Z,8.50
2023-03-17T12:33:39.181Z,9.40
2023-03-17T12:39:10.335Z,9.50
2023-03-17T12:44:57.668Z,9.20
2023-03-17T12:50:32.692Z,9.70
2023-03-17T12:55:36.782Z,8.90
2023-03-17T13:01:07.398Z,14.60
2023-03-17T13:06:21.315Z,10.80
2023-03-17T13:11:48.657Z,9.10
2023-03-17T13:16:52.366Z,8.90
2023-03-17T13:22:04.387Z,9.30
2023-03-17T13:27:14.045Z,10.10
2023-03-17T13:32:17.224Z,8.80
2023-03-17T13:37:41.990Z,14.10
2023-03-17T13:43:03.564Z,10.80
2023-03-17T13:48:33.687Z,11.00
2023-03-17T13:53:46.311Z,11.90
2023-03-17T13:59:11.251Z,11.10
2023-03-17T14:04:30.026Z,12.90
2023-03-17T14:09:41.539Z,12.60
2023-03-17T14:14:55.194Z,16.30
2023-03-17T14:20:13.228Z,16.70
2023-03-17T14:25:26.734Z,14.50
2023-03-17T14:30:33.082Z,44.50
2023-03-17T14:35:42.242Z,73.30
2023-03-17T14:40:46.107Z,25.40
2023-03-17T14:46:02.844Z,22.00
2023-03-17T14:51:31.161Z,22.20
2023-03-17T14:56:38.746Z,19.40
2023-03-17T15:01:48.598Z,27.10
2023-03-17T15:07:06.762Z,23.50
2023-03-17T15:12:23.613Z,21.40
2023-03-17T15:17:33.564Z,18.20
2023-03-17T15:22:36.409Z,20.70
2023-03-17T15:27:39.237Z,27.80
2023-03-17T15:32:42.521Z,17.70
2023-03-17T15:37:45.646Z,27.80
2023-03-17T15:42:48.644Z,14.20
2023-03-17T15:47:52.033Z,14.10
2023-03-17T15:52:56.285Z,11.90
2023-03-17T15:58:00.407Z,18.90
2023-03-17T16:03:16.612Z,21.80
2023-03-17T16:08:19.642Z,19.10
2023-03-17T16:13:22.838Z,24.60
2023-03-17T16:18:34.241Z,20.60
2023-03-17T16:23:37.609Z,17.90
2023-03-17T16:28:41.166Z,19.20
2023-03-17T16:33:44.138Z,35.30
2023-03-17T16:38:47.919Z,22.90
2023-03-17T16:44:00.002Z,27.70
2023-03-17T16:49:04.770Z,26.10
2023-03-17T16:54:08.433Z,26.80
2023-03-17T16:59:20.575Z,32.20
2023-03-17T17:04:27.024Z,42.50
2023-03-17T17:09:29.984Z,38.80
2023-03-17T17:14:32.927Z,16.60
2023-03-17T17:19:35.933Z,17.50
2023-03-17T17:24:38.915Z,17.70
2023-03-17T17:29:41.815Z,14.90
2023-03-17T17:34:44.728Z,20.10
2023-03-17T17:39:48.041Z,19.70
2023-03-17T17:44:51.298Z,17.50
2023-03-17T17:49:54.363Z,17.00
2023-03-17T17:54:57.522Z,16.40
2023-03-17T18:00:00.420Z,16.30
2023-03-17T18:05:05.945Z,20.90
2023-03-17T18:10:24.939Z,15.10
2023-03-17T18:15:28.162Z,11.80
2023-03-17T18:20:32.211Z,17.10
2023-03-17T18:25:35.981Z,12.30
2023-03-17T18:30:39.093Z,16.20
2023-03-17T18:35:43.007Z,13.70
2023-03-17T18:40:46.434Z,11.10
2023-03-17T18:45:49.525Z,11.80
2023-03-17T18:50:52.426Z,9.50
2023-03-17T18:55:57.246Z,11.30
2023-03-17T19:01:02.096Z,14.80
2023-03-17T19:06:18.713Z,17.70
2023-03-17T19:11:22.501Z,14.70
2023-03-17T19:16:30.873Z,20.80
2023-03-17T19:21:35.133Z,51.20
2023-03-17T19:26:38.014Z,37.30
2023-03-17T19:31:41.687Z,35.60
2023-03-17T19:36:46.686Z,25.80
2023-03-17T19:41:53.259Z,20.60
2023-03-17T19:46:56.616Z,50.20
2023-03-17T19:51:59.575Z,21.40
2023-03-17T19:57:02.493Z,15.80
2023-03-17T20:02:06.683Z,23.40
2023-03-17T20:07:10.737Z,17.60
2023-03-17T20:12:14.422Z,17.60
2023-03-17T20:17:18.049Z,15.00
2023-03-17T20:22:21.300Z,26.10
2023-03-17T20:27:24.734Z,15.80
2023-03-17T20:32:27.927Z,15.60
2023-03-17T20:37:32.504Z,16.70
2023-03-17T20:42:36.481Z,14.30
2023-03-17T20:47:39.322Z,18.40
2023-03-17T20:52:43.039Z,21.30
2023-03-17T20:57:47.572Z,26.60
2023-03-17T21:02:51.659Z,15.50
2023-03-17T21:07:56.663Z,14.30
2023-03-17T21:12:59.814Z,11.90
2023-03-17T21:18:02.900Z,14.40
2023-03-17T21:23:07.947Z,13.90
2023-03-17T21:28:11.593Z,11.80
2023-03-17T21:33:15.418Z,11.40
2023-03-17T21:38:18.452Z,15.10
2023-03-17T21:43:23.044Z,12.10
2023-03-17T21:48:26.221Z,11.00
2023-03-17T21:53:31.190Z,7.50
2023-03-17T21:58:34.632Z,12.40
2023-03-17T22:03:39.611Z,9.30
2023-03-17T22:08:43.282Z,9.50
2023-03-17T22:13:47.958Z,8.90
2023-03-17T22:18:51.795Z,8.90
2023-03-17T22:23:54.835Z,8.70
2023-03-17T22:28:58.483Z,8.90
2023-03-17T22:34:02.394Z,9.70
2023-03-17T22:39:08.935Z,9.30
2023-03-17T22:44:12.205Z,7.70
2023-03-17T22:49:15.197Z,8.30
2023-03-17T22:54:22.031Z,9.20
2023-03-17T22:59:24.950Z,9.50
2023-03-17T23:04:27.917Z,8.30
2023-03-17T23:09:33.861Z,8.80
2023-03-17T23:14:37.831Z,7.70
2023-03-17T23:19:41.221Z,7.30
2023-03-17T23:24:44.058Z,8.20
2023-03-17T23:29:47.197Z,9.00
2023-03-17T23:34:50.091Z,7.10
2023-03-17T23:39:53.606Z,8.00
2023-03-17T23:44:56.733Z,6.10
2023-03-17T23:49:59.751Z,7.40
2023-03-17T23:55:05.951Z,8.00
